Aérodrome :
LOGIN :

S'inscrire | Disclaimer

   EN    FR    IT 

 










Légende :    VFR   VFR Marginal   IFR   IFR Intensif   IFR Très Intensif
Visi : 
Plafond : 
>= 8 km
>= 3000ft
5 à 8 km
1000 à 3000 ft
1500m à 5 km
500 à 1000 ft
800 à 1500m
200 à 500 ft
< 800m
< 200 ft
Symboles :   Orages  Brouillard  Fortes neiges  Fortes précipitations  Vent > 20 kt
SIGMETs :   Divers  Orages  Givrage  Turbulence  Onde Orograph.  Cendres Volcan.







- Altitude de l'aérodrome : 36 ft
- Code IATA : LTQ
- Voir les cartes d'approche


LFAT - Le Touquet

DERNIER METAR :
  • 160730Z AUTO 22007KT 170V260 9999 BKN016 OVC033 20/17 Q1016 TEMPO BKN013

METARs EXPIRÉS :
  • 160700Z AUTO 22005KT 180V250 9999 OVC033 19/16 Q1016 TEMPO BKN013
  • 160630Z AUTO 21005KT 180V240 9999 OVC030 19/16 Q1016 TEMPO BKN013
  • 160600Z AUTO 22004KT 190V250 9999 OVC030 19/16 Q1016 TEMPO BKN013
  • 160530Z AUTO 23005KT 200V260 9999 FEW012 OVC029 18/16 Q1016
  • 160500Z AUTO 24005KT 210V270 9999 FEW011 OVC030 18/16 Q1016

TAF AMD TAF LFAT
Valide du 16 à 06h jusqu'au 16 à 15h UTC


160534Z 1606/1615 24007KT 9999 BKN030
TEMPO 1606/1609 BKN013
BECMG 1612/1615 30010KT
ATIS : +33 3 21 06 62 84
Pas de NOTAMs connus pour ce terrain.



MET'MAP, la Météo Aéronautique d'un coup d'oeil ! - Copyright ORBIFLY Décembre 2007 - Disclaimer

ORBIFLY MET'MAP TEAM :

Programmation & Développement : Alexandra Zaïnal
Conception & Développement : Baudouin d'Aumeries
Co-Programmation & Développement : Marc-Olivier Méhu
Soutien technique & logistique : Manuel Goepfert

Contact : metmap@orbifly.com




SOURCES & CREDITS :

   NOAA